Time;durP1;ratioP1;P1;durP2;ratioP2;P2;SDS_P1;SDS_P2;PMS_P1;PMS_P2;Temp;Humidity;BMP_temperature;BMP_pressure;BME280_temperature;BME280_humidity;BME280_pressure;Samples;Min_cycle;Max_cycle;Signal;HPM_P1;HPM_P2
2022/11/30 00:01:14;;;;;;;;;;;;;;;;;;5077821;28;19943;-86
2022/11/30 00:03:40;;;;;;;;;;;;;;;;;;5095991;28;19916;-87
2022/11/30 00:06:06;;;;;;;;;;;;;;;;;;5077716;28;20451;-87
2022/11/30 00:08:32;;;;;;;;;;;;;;;;;;5095781;28;19916;-87
2022/11/30 00:10:57;;;;;;;;;;;;;;;;;;5095868;28;19916;-87
2022/11/30 00:13:23;;;;;;;;;;;;;;;;;;5077607;28;20010;-87
2022/11/30 00:15:48;;;;;;;;;;;;;;;;;;5095881;28;20396;-86
2022/11/30 00:18:16;;;;;;;;;;;;;;;;;;5096570;28;19916;-85
2022/11/30 00:20:42;;;;;;;;;;;;;;;;;;5077645;28;19920;-86
2022/11/30 00:23:08;;;;;;;;;;;;;;;;;;5095775;28;19920;-87
2022/11/30 00:25:34;;;;;;;;;;;;;;;;;;5077297;28;19916;-85
2022/11/30 00:28:00;;;;;;;;;;;;;;;;;;5077388;28;19923;-87
2022/11/30 00:30:26;;;;;;;;;;;;;;;;;;5095014;28;19927;-86
2022/11/30 00:32:55;;;;;;;;;;;;;;;;;;5095763;28;19916;-86
2022/11/30 00:35:20;;;;;;;;;;;;;;;;;;5077005;28;19920;-86
2022/11/30 00:37:45;;;;;;;;;;;;;;;;;;5077303;28;19962;-87
2022/11/30 00:40:11;;;;;;;;;;;;;;;;;;5076872;28;19939;-86
2022/11/30 00:42:36;;;;;;;;;;;;;;;;;;5095390;28;20011;-86
2022/11/30 00:45:02;;;;;;;;;;;;;;;;;;5077078;28;20355;-87
2022/11/30 00:47:28;;;;;;;;;;;;;;;;;;5095084;28;19923;-86
2022/11/30 00:49:53;;;;;;;;;;;;;;;;;;5077004;28;19924;-85
2022/11/30 00:52:19;;;;;;;;;;;;;;;;;;5094903;28;20424;-86
2022/11/30 00:54:44;;;;;;;;;;;;;;;;;;5095220;28;19920;-87
2022/11/30 00:57:10;;;;;;;;;;;;;;;;;;5076882;28;19916;-87
2022/11/30 00:59:35;;;;;;;;;;;;;;;;;;5095127;28;19916;-86
2022/11/30 01:02:01;;;;;;;;;;;;;;;;;;5094388;28;19923;-87
2022/11/30 01:04:26;;;;;;;;;;;;;;;;;;5094670;28;20291;-86
2022/11/30 01:06:51;;;;;;;;;;;;;;;;;;5094834;28;19920;-86
2022/11/30 01:09:17;;;;;;;;;;;;;;;;;;5094633;28;19922;-86
2022/11/30 01:11:42;;;;;;;;;;;;;;;;;;5094714;28;19978;-87
2022/11/30 01:14:08;;;;;;;;;;;;;;;;;;5076485;28;19963;-85
2022/11/30 01:16:33;;;;;;;;;;;;;;;;;;5094644;28;19956;-85
2022/11/30 01:18:59;;;;;;;;;;;;;;;;;;5094668;28;19923;-87
2022/11/30 01:21:26;;;;;;;;;;;;;;;;;;5094332;28;19916;-86
2022/11/30 01:23:51;;;;;;;;;;;;;;;;;;5094665;28;19928;-86
2022/11/30 01:26:17;;;;;;;;;;;;;;;;;;5076116;28;20370;-87
2022/11/30 01:28:43;;;;;;;;;;;;;;;;;;5072404;28;19921;-86
2022/11/30 01:31:10;;;;;;;;;;;;;;;;;;5072733;28;19960;-86
2022/11/30 01:33:35;;;;;;;;;;;;;;;;;;5072580;28;20375;-87
2022/11/30 01:36:02;;;;;;;;;;;;;;;;;;5067186;28;19917;-87
2022/11/30 01:38:32;;;;;;;;;;;;;;;;;;5059575;28;20012;-87
2022/11/30 01:40:57;;;;;;;;;;;;;;;;;;5061060;28;19999;-87
2022/11/30 01:43:35;;;;;;;;;;;;;;;;;;5060907;28;20034;-87
2022/11/30 01:46:01;;;;;;;;;;;;;;;;;;5059168;28;19928;-86
2022/11/30 01:48:27;;;;;;;;;;;;;;;;;;5089248;28;19921;-86
2022/11/30 01:50:52;;;;;;;;;;;;;;;;;;5059092;28;19917;-86
2022/11/30 01:53:18;;;;;;;;;;;;;;;;;;5089377;28;20346;-86
2022/11/30 01:55:45;;;;;;;;;;;;;;;;;;5057756;28;20378;-87
2022/11/30 01:58:40;;;;;;;;;;;;;;;;;;5058762;28;19970;-87
2022/11/30 02:01:05;;;;;;;;;;;;;;;;;;5056520;28;19924;-86
2022/11/30 02:03:46;;;;;;;;;;;;;;;;;;5061080;28;19928;-85
2022/11/30 02:06:11;;;;;;;;;;;;;;;;;;5059726;28;20382;-86
2022/11/30 02:08:37;;;;;;;;;;;;;;;;;;5059896;28;19916;-86
2022/11/30 02:11:03;;;;;;;;;;;;;;;;;;5057947;28;19924;-86
2022/11/30 02:13:29;;;;;;;;;;;;;;;;;;5057694;28;19924;-87
2022/11/30 02:15:54;;;;;;;;;;;;;;;;;;5058179;28;19921;-87
2022/11/30 02:18:43;;;;;;;;;;;;;;;;;;5059690;28;19963;-87
2022/11/30 02:21:34;;;;;;;;;;;;;;;;;;5069932;28;19920;-86
2022/11/30 02:24:12;;;;;;;;;;;;;;;;;;5054549;28;19923;-85
2022/11/30 02:26:54;;;;;;;;;;;;;;;;;;5059826;28;20015;-85
2022/11/30 02:29:24;;;;;;;;;;;;;;;;;;5070217;28;19927;-86
2022/11/30 02:31:53;;;;;;;;;;;;;;;;;;5079152;28;19922;-86
2022/11/30 02:34:19;;;;;;;;;;;;;;;;;;5061454;28;19917;-86
2022/11/30 02:36:45;;;;;;;;;;;;;;;;;;5078658;28;19924;-86
2022/11/30 02:39:10;;;;;;;;;;;;;;;;;;5080426;28;19917;-86
2022/11/30 02:41:37;;;;;;;;;;;;;;;;;;5079185;28;19929;-86
2022/11/30 02:44:03;;;;;;;;;;;;;;;;;;5080963;28;20646;-87
2022/11/30 02:46:54;;;;;;;;;;;;;;;;;;5080216;28;19924;-85
2022/11/30 02:49:46;;;;;;;;;;;;;;;;;;5055543;28;19923;-86
2022/11/30 02:52:13;;;;;;;;;;;;;;;;;;5081348;28;19916;-88
2022/11/30 02:54:39;;;;;;;;;;;;;;;;;;5072572;28;19913;-87
2022/11/30 02:57:04;;;;;;;;;;;;;;;;;;5072256;28;19924;-87
2022/11/30 02:59:29;;;;;;;;;;;;;;;;;;5054526;28;19916;-86
2022/11/30 03:01:55;;;;;;;;;;;;;;;;;;5087132;28;19920;-86
2022/11/30 03:04:20;;;;;;;;;;;;;;;;;;5074576;28;19939;-85
2022/11/30 03:06:46;;;;;;;;;;;;;;;;;;5092674;28;20006;-86
2022/11/30 03:09:12;;;;;;;;;;;;;;;;;;5074158;28;19923;-86
2022/11/30 03:11:37;;;;;;;;;;;;;;;;;;5092755;28;19923;-86
2022/11/30 03:14:02;;;;;;;;;;;;;;;;;;5092194;28;20382;-87
2022/11/30 03:16:28;;;;;;;;;;;;;;;;;;5092680;28;19927;-86
2022/11/30 03:18:53;;;;;;;;;;;;;;;;;;5092388;28;20344;-86
2022/11/30 03:21:18;;;;;;;;;;;;;;;;;;5074270;28;19920;-87
2022/11/30 03:23:44;;;;;;;;;;;;;;;;;;5092543;28;20015;-87
2022/11/30 03:26:09;;;;;;;;;;;;;;;;;;5092038;28;20375;-88
2022/11/30 03:28:35;;;;;;;;;;;;;;;;;;5074173;28;19930;-87
2022/11/30 03:31:01;;;;;;;;;;;;;;;;;;5092119;28;20282;-87
2022/11/30 03:33:26;;;;;;;;;;;;;;;;;;5092445;28;19998;-86
2022/11/30 03:35:58;;;;;;;;;;;;;;;;;;5074274;28;19963;-86
2022/11/30 03:38:24;;;;;;;;;;;;;;;;;;5092186;28;19926;-87
2022/11/30 03:40:49;;;;;;;;;;;;;;;;;;5092391;28;19942;-86
2022/11/30 03:43:15;;;;;;;;;;;;;;;;;;5074002;28;20377;-86
2022/11/30 03:45:43;;;;;;;;;;;;;;;;;;5074810;28;19928;-86
2022/11/30 03:48:09;;;;;;;;;;;;;;;;;;5093273;28;19951;-87
2022/11/30 03:50:34;;;;;;;;;;;;;;;;;;5063324;28;19954;-86
2022/11/30 03:52:59;;;;;;;;;;;;;;;;;;5067200;28;20368;-86
2022/11/30 03:55:25;;;;;;;;;;;;;;;;;;5082354;28;19912;-87
2022/11/30 03:57:50;;;;;;;;;;;;;;;;;;5069370;28;20015;-86
2022/11/30 04:00:16;;;;;;;;;;;;;;;;;;5083628;28;20359;-86
2022/11/30 04:02:42;;;;;;;;;;;;;;;;;;5080153;28;20074;-88
2022/11/30 04:05:07;;;;;;;;;;;;;;;;;;5069576;28;19927;-86
2022/11/30 04:07:33;;;;;;;;;;;;;;;;;;5086427;28;20003;-85
2022/11/30 04:09:58;;;;;;;;;;;;;;;;;;5104933;28;19920;-86
2022/11/30 04:12:24;;;;;;;;;;;;;;;;;;5077366;28;19920;-86
2022/11/30 04:14:49;;;;;;;;;;;;;;;;;;5090546;28;19917;-87
2022/11/30 04:17:15;;;;;;;;;;;;;;;;;;5071599;28;19916;-87
2022/11/30 04:19:40;;;;;;;;;;;;;;;;;;5074661;28;19916;-87
2022/11/30 04:22:05;;;;;;;;;;;;;;;;;;5072101;28;19920;-87
2022/11/30 04:24:31;;;;;;;;;;;;;;;;;;5093985;28;19931;-86
2022/11/30 04:26:56;;;;;;;;;;;;;;;;;;5063483;28;20362;-88
2022/11/30 04:29:21;;;;;;;;;;;;;;;;;;5083545;28;19920;-87
2022/11/30 04:31:47;;;;;;;;;;;;;;;;;;5075324;28;19917;-87
2022/11/30 04:34:12;;;;;;;;;;;;;;;;;;5075442;28;20049;-85
2022/11/30 04:36:38;;;;;;;;;;;;;;;;;;5079936;28;20359;-87
2022/11/30 04:39:03;;;;;;;;;;;;;;;;;;5088307;28;19920;-87
2022/11/30 04:41:28;;;;;;;;;;;;;;;;;;5068765;28;19926;-85
2022/11/30 04:43:54;;;;;;;;;;;;;;;;;;5090881;28;19920;-86
2022/11/30 04:46:19;;;;;;;;;;;;;;;;;;5083841;28;20429;-85
2022/11/30 04:48:45;;;;;;;;;;;;;;;;;;5081263;28;19924;-86
2022/11/30 04:51:10;;;;;;;;;;;;;;;;;;5066295;28;20026;-85
2022/11/30 04:53:36;;;;;;;;;;;;;;;;;;5072149;28;19916;-86
2022/11/30 04:56:05;;;;;;;;;;;;;;;;;;5065795;28;19921;-86
2022/11/30 04:58:31;;;;;;;;;;;;;;;;;;5081042;28;19920;-87
2022/11/30 05:00:56;;;;;;;;;;;;;;;;;;5079695;28;19923;-88
2022/11/30 05:03:22;;;;;;;;;;;;;;;;;;5079951;28;19917;-86
2022/11/30 05:05:47;;;;;;;;;;;;;;;;;;5081536;28;19916;-86
2022/11/30 05:08:12;;;;;;;;;;;;;;;;;;5063974;28;19931;-87
2022/11/30 05:10:38;;;;;;;;;;;;;;;;;;5087698;28;20367;-87
2022/11/30 05:13:03;;;;;;;;;;;;;;;;;;5083908;28;19923;-87
2022/11/30 05:15:29;;;;;;;;;;;;;;;;;;5083172;28;19916;-86
2022/11/30 05:17:57;;;;;;;;;;;;;;;;;;5081654;28;20287;-85
2022/11/30 05:20:22;;;;;;;;;;;;;;;;;;5081905;28;19920;-85
2022/11/30 05:22:48;;;;;;;;;;;;;;;;;;5082205;28;19926;-86
2022/11/30 05:25:13;;;;;;;;;;;;;;;;;;5064942;28;19916;-87
2022/11/30 05:27:38;;;;;;;;;;;;;;;;;;5060767;28;19916;-87
2022/11/30 05:30:04;;;;;;;;;;;;;;;;;;5074809;28;19930;-87
2022/11/30 05:32:30;;;;;;;;;;;;;;;;;;5070983;28;19924;-87
2022/11/30 05:34:55;;;;;;;;;;;;;;;;;;5072498;28;20354;-87
2022/11/30 05:37:20;;;;;;;;;;;;;;;;;;5089351;28;19978;-86
2022/11/30 05:39:46;;;;;;;;;;;;;;;;;;5073932;28;20402;-86
2022/11/30 05:42:11;;;;;;;;;;;;;;;;;;5074361;28;19927;-87
2022/11/30 05:44:37;;;;;;;;;;;;;;;;;;5059412;28;19916;-86
2022/11/30 05:47:02;;;;;;;;;;;;;;;;;;5076157;28;19924;-86
2022/11/30 05:49:27;;;;;;;;;;;;;;;;;;5073764;28;19924;-87
2022/11/30 05:51:53;;;;;;;;;;;;;;;;;;5073923;28;19923;-87
2022/11/30 05:54:18;;;;;;;;;;;;;;;;;;5074810;28;19916;-86
2022/11/30 05:56:44;;;;;;;;;;;;;;;;;;5075846;28;19999;-87
2022/11/30 05:59:10;;;;;;;;;;;;;;;;;;5057014;28;20295;-86
2022/11/30 06:01:35;;;;;;;;;;;;;;;;;;5074280;28;19934;-86
2022/11/30 06:04:03;;;;;;;;;;;;;;;;;;5072429;28;20330;-86
2022/11/30 06:06:28;;;;;;;;;;;;;;;;;;5072040;28;20386;-86
2022/11/30 06:08:54;;;;;;;;;;;;;;;;;;5090253;28;19924;-85
2022/11/30 06:11:19;;;;;;;;;;;;;;;;;;5093040;28;19916;-85
2022/11/30 06:13:44;;;;;;;;;;;;;;;;;;5093556;28;19927;-87
2022/11/30 06:16:10;;;;;;;;;;;;;;;;;;5075327;28;20018;-87
2022/11/30 06:18:36;;;;;;;;;;;;;;;;;;5093264;28;19988;-87
2022/11/30 06:21:02;;;;;;;;;;;;;;;;;;5093422;28;19919;-88
2022/11/30 06:23:28;;;;;;;;;;;;;;;;;;5093145;28;19920;-86
2022/11/30 06:25:53;;;;;;;;;;;;;;;;;;5093294;28;20053;-85
2022/11/30 06:28:18;;;;;;;;;;;;;;;;;;5074890;28;19916;-85
2022/11/30 06:30:44;;;;;;;;;;;;;;;;;;5092736;28;19924;-88
2022/11/30 06:33:09;;;;;;;;;;;;;;;;;;5074821;28;19922;-86
2022/11/30 06:35:34;;;;;;;;;;;;;;;;;;5092989;28;19916;-86
2022/11/30 06:38:00;;;;;;;;;;;;;;;;;;5093073;28;19944;-86
2022/11/30 06:40:26;;;;;;;;;;;;;;;;;;5074595;28;19943;-87
2022/11/30 06:42:52;;;;;;;;;;;;;;;;;;5092749;28;19917;-87
2022/11/30 06:45:17;;;;;;;;;;;;;;;;;;5092831;28;19977;-86
2022/11/30 06:47:43;;;;;;;;;;;;;;;;;;5092641;28;19926;-85
2022/11/30 06:50:08;;;;;;;;;;;;;;;;;;5093130;28;19969;-87
2022/11/30 06:52:34;;;;;;;;;;;;;;;;;;5074782;28;19927;-87
2022/11/30 06:54:59;;;;;;;;;;;;;;;;;;5093020;28;19917;-86
2022/11/30 06:57:25;;;;;;;;;;;;;;;;;;5092969;28;19916;-87
2022/11/30 06:59:51;;;;;;;;;;;;;;;;;;5092248;28;20349;-87
2022/11/30 07:02:16;;;;;;;;;;;;;;;;;;5092684;28;19955;-87
2022/11/30 07:04:41;;;;;;;;;;;;;;;;;;5092309;28;19917;-87
2022/11/30 07:07:07;;;;;;;;;;;;;;;;;;5092865;28;19923;-86
2022/11/30 07:09:33;;;;;;;;;;;;;;;;;;5092188;28;20363;-86
2022/11/30 07:11:59;;;;;;;;;;;;;;;;;;5074349;28;20286;-87
2022/11/30 07:14:24;;;;;;;;;;;;;;;;;;5092520;28;20027;-87
2022/11/30 07:16:50;;;;;;;;;;;;;;;;;;5073994;28;19921;-88
2022/11/30 07:19:15;;;;;;;;;;;;;;;;;;5093387;28;20588;-87
2022/11/30 07:21:40;;;;;;;;;;;;;;;;;;5091828;28;19938;-86
2022/11/30 07:26:50;;;;;;;;;;;;;;;;;;5092501;28;19923;-87
2022/11/30 07:29:15;;;;;;;;;;;;;;;;;;5092119;28;19924;-87
2022/11/30 07:31:40;;;;;;;;;;;;;;;;;;5073872;28;19920;-87
2022/11/30 07:34:07;;;;;;;;;;;;;;;;;;5074448;28;19920;-86
2022/11/30 07:36:33;;;;;;;;;;;;;;;;;;5091973;28;19916;-87
2022/11/30 07:38:58;;;;;;;;;;;;;;;;;;5074858;28;19916;-88
2022/11/30 07:41:24;;;;;;;;;;;;;;;;;;5092251;28;19926;-87
2022/11/30 07:43:49;;;;;;;;;;;;;;;;;;5092641;28;20003;-87
2022/11/30 07:46:16;;;;;;;;;;;;;;;;;;5073767;28;19962;-88
2022/11/30 07:48:42;;;;;;;;;;;;;;;;;;5091764;28;19923;-88
2022/11/30 07:51:11;;;;;;;;;;;;;;;;;;5092059;28;20227;-87
2022/11/30 07:53:36;;;;;;;;;;;;;;;;;;5091563;28;19920;-87
2022/11/30 07:56:03;;;;;;;;;;;;;;;;;;5086686;28;19977;-88
2022/11/30 07:58:29;;;;;;;;;;;;;;;;;;5091464;28;19975;-87
2022/11/30 08:00:59;;;;;;;;;;;;;;;;;;5090489;28;19924;-89
2022/11/30 08:03:24;;;;;;;;;;;;;;;;;;5090289;28;19942;-88
2022/11/30 08:05:49;;;;;;;;;;;;;;;;;;5090881;28;19943;-87
2022/11/30 08:08:15;;;;;;;;;;;;;;;;;;5090337;28;19916;-87
2022/11/30 08:10:40;;;;;;;;;;;;;;;;;;5089923;28;20017;-87
2022/11/30 08:13:06;;;;;;;;;;;;;;;;;;5076435;28;20374;-87
2022/11/30 08:15:31;;;;;;;;;;;;;;;;;;5076551;28;19924;-87
2022/11/30 08:17:59;;;;;;;;;;;;;;;;;;5076955;28;20320;-87
2022/11/30 08:20:24;;;;;;;;;;;;;;;;;;5076625;28;19946;-87
2022/11/30 08:22:51;;;;;;;;;;;;;;;;;;5096122;28;20363;-87
2022/11/30 08:25:17;;;;;;;;;;;;;;;;;;5096144;28;19939;-87
2022/11/30 08:27:42;;;;;;;;;;;;;;;;;;5096130;28;20370;-87
2022/11/30 08:30:08;;;;;;;;;;;;;;;;;;5096278;28;19924;-87
2022/11/30 08:32:33;;;;;;;;;;;;;;;;;;5096164;28;19962;-88
2022/11/30 08:34:58;;;;;;;;;;;;;;;;;;5078177;28;19916;-87
2022/11/30 08:37:24;;;;;;;;;;;;;;;;;;5095971;28;19969;-88
2022/11/30 08:39:49;;;;;;;;;;;;;;;;;;5106182;28;19901;-88
2022/11/30 08:42:15;;;;;;;;;;;;;;;;;;5083120;28;19905;-88
2022/11/30 08:44:41;;;;;;;;;;;;;;;;;;5109420;28;20329;-87
2022/11/30 08:47:06;;;;;;;;;;;;;;;;;;5101004;28;20011;-87
2022/11/30 08:49:31;;;;;;;;;;;;;;;;;;5101703;28;19970;-87
2022/11/30 08:51:57;;;;;;;;;;;;;;;;;;5095406;28;20445;-87
2022/11/30 08:54:22;;;;;;;;;;;;;;;;;;5077027;28;19916;-87
2022/11/30 08:56:48;;;;;;;;;;;;;;;;;;5076903;28;19999;-87
2022/11/30 08:59:13;;;;;;;;;;;;;;;;;;5095151;28;19916;-87
2022/11/30 09:01:41;;;;;;;;;;;;;;;;;;5094764;28;20370;-87
2022/11/30 09:04:06;;;;;;;;;;;;;;;;;;5095086;28;19916;-87
2022/11/30 09:06:32;;;;;;;;;;;;;;;;;;5094797;28;19958;-87
2022/11/30 09:08:57;;;;;;;;;;;;;;;;;;5094995;28;19920;-87
2022/11/30 09:11:27;;;;;;;;;;;;;;;;;;5094922;28;19920;-87
2022/11/30 09:13:54;;;;;;;;;;;;;;;;;;5094743;28;20374;-88
2022/11/30 09:16:19;;;;;;;;;;;;;;;;;;5094877;28;19923;-86
2022/11/30 09:18:45;;;;;;;;;;;;;;;;;;5094523;28;19916;-87
2022/11/30 09:21:12;;;;;;;;;;;;;;;;;;5094701;28;19916;-86
2022/11/30 09:23:38;;;;;;;;;;;;;;;;;;5094046;28;19926;-87
2022/11/30 09:26:05;;;;;;;;;;;;;;;;;;5094663;28;19916;-87
2022/11/30 09:28:31;;;;;;;;;;;;;;;;;;5093761;28;19976;-87
2022/11/30 09:31:01;;;;;;;;;;;;;;;;;;5094487;28;20322;-87
2022/11/30 09:33:26;;;;;;;;;;;;;;;;;;5094486;28;19916;-87
2022/11/30 09:35:58;;;;;;;;;;;;;;;;;;5094612;28;19938;-87
2022/11/30 09:38:24;;;;;;;;;;;;;;;;;;5094302;28;20294;-87
2022/11/30 09:41:00;;;;;;;;;;;;;;;;;;5094369;28;19990;-86
2022/11/30 09:43:31;;;;;;;;;;;;;;;;;;5093989;28;19927;-86
2022/11/30 09:45:57;;;;;;;;;;;;;;;;;;5094261;28;20011;-87
2022/11/30 09:48:35;;;;;;;;;;;;;;;;;;5093866;28;20417;-87
2022/11/30 09:51:05;;;;;;;;;;;;;;;;;;5093927;28;19916;-86
2022/11/30 09:53:42;;;;;;;;;;;;;;;;;;5093919;28;20039;-86
2022/11/30 09:56:19;;;;;;;;;;;;;;;;;;5075652;28;19916;-87
2022/11/30 09:58:47;;;;;;;;;;;;;;;;;;5093664;28;20290;-87
2022/11/30 10:01:16;;;;;;;;;;;;;;;;;;5075675;28;20019;-87
2022/11/30 10:03:41;;;;;;;;;;;;;;;;;;5093454;28;19973;-87
2022/11/30 10:06:14;;;;;;;;;;;;;;;;;;5093801;28;19920;-86
2022/11/30 10:08:51;;;;;;;;;;;;;;;;;;5093505;28;19923;-87
2022/11/30 10:11:37;;;;;;;;;;;;;;;;;;5093928;28;19942;-86
2022/11/30 10:14:16;;;;;;;;;;;;;;;;;;5300523;22;20405;-87
2022/11/30 10:16:49;;;;;;;;;;;;;;;;;;5053454;28;19963;-88
2022/11/30 10:19:15;;;;;;;;;;;;;;;;;;5053364;28;20007;-86
2022/11/30 10:21:40;;;;;;;;;;;;;;;;;;5053419;28;19952;-87
2022/11/30 10:24:11;;;;;;;;;;;;;;;;;;5053150;28;19917;-87
2022/11/30 10:26:38;;;;;;;;;;;;;;;;;;5053316;28;19917;-87
2022/11/30 10:29:17;;;;;;;;;;;;;;;;;;5053170;28;20300;-87
2022/11/30 10:31:43;;;;;;;;;;;;;;;;;;5052924;28;19921;-86
2022/11/30 10:34:30;;;;;;;;;;;;;;;;;;5052573;28;19920;-86
2022/11/30 10:37:11;;;;;;;;;;;;;;;;;;5053140;28;19921;-87
2022/11/30 10:39:48;;;;;;;;;;;;;;;;;;5052907;28;19927;-87
2022/11/30 10:42:17;;;;;;;;;;;;;;;;;;5052612;28;19921;-86
2022/11/30 10:44:45;;;;;;;;;;;;;;;;;;5068250;28;20296;-86
2022/11/30 10:47:17;;;;;;;;;;;;;;;;;;5052636;28;19917;-86
2022/11/30 10:49:47;;;;;;;;;;;;;;;;;;5052806;28;20015;-85
2022/11/30 10:52:16;;;;;;;;;;;;;;;;;;5052769;28;19921;-86
2022/11/30 10:54:41;;;;;;;;;;;;;;;;;;5067904;28;19917;-87
2022/11/30 10:57:07;;;;;;;;;;;;;;;;;;5067961;28;19923;-86
2022/11/30 10:59:38;;;;;;;;;;;;;;;;;;5052742;28;19924;-86
2022/11/30 11:02:23;;;;;;;;;;;;;;;;;;5051184;28;20368;-86
2022/11/30 11:05:05;;;;;;;;;;;;;;;;;;5051814;28;19998;-86
2022/11/30 11:07:30;;;;;;;;;;;;;;;;;;5049557;28;19917;-86
2022/11/30 11:10:00;;;;;;;;;;;;;;;;;;5051337;28;20280;-85
2022/11/30 11:12:27;;;;;;;;;;;;;;;;;;5050300;28;19962;-86
2022/11/30 11:15:11;;;;;;;;;;;;;;;;;;5051627;28;19920;-85
2022/11/30 11:17:36;;;;;;;;;;;;;;;;;;5051794;28;19920;-86
2022/11/30 11:20:02;;;;;;;;;;;;;;;;;;5051581;28;20012;-86
2022/11/30 11:22:29;;;;;;;;;;;;;;;;;;5050892;28;20419;-86
2022/11/30 11:25:08;;;;;;;;;;;;;;;;;;5052185;28;19917;-86
2022/11/30 11:27:34;;;;;;;;;;;;;;;;;;5052381;28;19924;-86
2022/11/30 11:30:16;;;;;;;;;;;;;;;;;;5051940;28;19917;-87
2022/11/30 11:32:55;;;;;;;;;;;;;;;;;;5050790;28;20291;-87
2022/11/30 11:35:40;;;;;;;;;;;;;;;;;;5052132;28;20019;-87
2022/11/30 11:38:24;;;;;;;;;;;;;;;;;;5052083;28;19920;-87
2022/11/30 11:40:51;;;;;;;;;;;;;;;;;;5052166;28;19917;-86
2022/11/30 11:43:17;;;;;;;;;;;;;;;;;;5052322;28;19921;-87
2022/11/30 11:45:49;;;;;;;;;;;;;;;;;;5053470;28;20451;-86
2022/11/30 11:48:32;;;;;;;;;;;;;;;;;;5056277;28;20375;-87
2022/11/30 11:51:05;;;;;;;;;;;;;;;;;;5054808;28;20023;-86
2022/11/30 11:53:42;;;;;;;;;;;;;;;;;;5054731;28;19939;-86
2022/11/30 11:56:27;;;;;;;;;;;;;;;;;;5056081;28;19999;-87
2022/11/30 11:58:55;;;;;;;;;;;;;;;;;;5056104;28;19917;-86
2022/11/30 12:01:43;;;;;;;;;;;;;;;;;;5055856;28;19925;-87
2022/11/30 12:04:12;;;;;;;;;;;;;;;;;;5055242;28;20004;-85
2022/11/30 12:06:38;;;;;;;;;;;;;;;;;;5056184;28;19924;-88
2022/11/30 12:09:12;;;;;;;;;;;;;;;;;;5051865;28;19927;-88
2022/11/30 12:11:37;;;;;;;;;;;;;;;;;;5061141;28;19921;-88
2022/11/30 12:14:08;;;;;;;;;;;;;;;;;;5050405;28;20402;-87
2022/11/30 12:16:42;;;;;;;;;;;;;;;;;;5050403;28;19956;-88
2022/11/30 12:19:07;;;;;;;;;;;;;;;;;;5050740;28;19928;-87
2022/11/30 12:21:51;;;;;;;;;;;;;;;;;;5051347;28;19928;-86
2022/11/30 12:24:25;;;;;;;;;;;;;;;;;;5051803;28;20434;-87
2022/11/30 12:26:56;;;;;;;;;;;;;;;;;;5048656;28;19921;-86
2022/11/30 12:29:21;;;;;;;;;;;;;;;;;;5051755;28;19936;-86
2022/11/30 12:32:02;;;;;;;;;;;;;;;;;;5052631;28;19925;-88
2022/11/30 12:34:35;;;;;;;;;;;;;;;;;;5048278;28;19979;-87
2022/11/30 12:37:01;;;;;;;;;;;;;;;;;;5045318;28;20402;-88
2022/11/30 12:39:52;;;;;;;;;;;;;;;;;;5057164;28;19958;-88
2022/11/30 12:42:26;;;;;;;;;;;;;;;;;;5059650;28;19944;-88
2022/11/30 12:45:00;;;;;;;;;;;;;;;;;;5054182;28;19967;-87
2022/11/30 12:47:44;;;;;;;;;;;;;;;;;;5053094;28;20342;-88
2022/11/30 12:50:28;;;;;;;;;;;;;;;;;;5070245;28;19959;-87
2022/11/30 12:52:54;;;;;;;;;;;;;;;;;;5065792;28;20269;-86
2022/11/30 12:55:25;;;;;;;;;;;;;;;;;;5054787;28;19928;-87
2022/11/30 12:57:51;;;;;;;;;;;;;;;;;;5069847;28;20367;-86
2022/11/30 13:00:20;;;;;;;;;;;;;;;;;;5065838;28;19923;-88
2022/11/30 13:02:52;;;;;;;;;;;;;;;;;;5072344;28;20414;-87
2022/11/30 13:05:21;;;;;;;;;;;;;;;;;;5066478;28;19928;-87
2022/11/30 13:07:51;;;;;;;;;;;;;;;;;;5052440;28;19920;-87
2022/11/30 13:10:25;;;;;;;;;;;;;;;;;;5054315;28;20012;-87
2022/11/30 13:12:51;;;;;;;;;;;;;;;;;;5051919;28;20003;-88
2022/11/30 13:15:20;;;;;;;;;;;;;;;;;;5051139;28;20011;-89
2022/11/30 13:17:46;;;;;;;;;;;;;;;;;;5049227;28;19921;-88
2022/11/30 13:20:30;;;;;;;;;;;;;;;;;;5034037;28;19960;-87
2022/11/30 13:22:55;;;;;;;;;;;;;;;;;;5037433;28;19936;-86
2022/11/30 13:25:25;;;;;;;;;;;;;;;;;;5036131;28;19925;-87
2022/11/30 13:28:11;;;;;;;;;;;;;;;;;;5054944;28;19925;-86
2022/11/30 13:30:39;;;;;;;;;;;;;;;;;;5037820;28;19944;-87
2022/11/30 13:33:23;;;;;;;;;;;;;;;;;;5036973;28;19932;-87
2022/11/30 13:35:52;;;;;;;;;;;;;;;;;;5035618;28;20390;-88
2022/11/30 13:38:19;;;;;;;;;;;;;;;;;;5036112;28;19924;-88
2022/11/30 13:41:10;;;;;;;;;;;;;;;;;;5038569;28;20726;-87
2022/11/30 13:43:42;;;;;;;;;;;;;;;;;;5037902;28;19929;-88
2022/11/30 13:46:17;;;;;;;;;;;;;;;;;;5033302;28;19936;-88
2022/11/30 13:48:43;;;;;;;;;;;;;;;;;;5041540;28;19932;-87
2022/11/30 13:51:09;;;;;;;;;;;;;;;;;;5040549;28;19924;-88
2022/11/30 13:53:37;;;;;;;;;;;;;;;;;;5036323;28;19982;-88
2022/11/30 13:56:04;;;;;;;;;;;;;;;;;;5033845;28;19928;-88
2022/11/30 13:58:30;;;;;;;;;;;;;;;;;;5039112;28;19925;-88
2022/11/30 14:01:00;;;;;;;;;;;;;;;;;;5036530;28;19925;-89
2022/11/30 14:03:27;;;;;;;;;;;;;;;;;;5037414;28;20417;-87
2022/11/30 14:05:53;;;;;;;;;;;;;;;;;;5061870;28;20698;-90
2022/11/30 14:08:19;;;;;;;;;;;;;;;;;;5050959;28;19925;-89
2022/11/30 14:10:45;;;;;;;;;;;;;;;;;;5047793;28;19920;-87
2022/11/30 14:13:12;;;;;;;;;;;;;;;;;;5049404;28;19936;-89
2022/11/30 14:15:37;;;;;;;;;;;;;;;;;;5044513;28;19925;-87
2022/11/30 14:18:08;;;;;;;;;;;;;;;;;;5046135;28;20193;-88
2022/11/30 14:20:37;;;;;;;;;;;;;;;;;;5046886;28;19924;-87
2022/11/30 14:23:05;;;;;;;;;;;;;;;;;;5047836;28;20012;-84
2022/11/30 14:25:32;;;;;;;;;;;;;;;;;;5062672;28;20371;-86
2022/11/30 14:27:59;;;;;;;;;;;;;;;;;;5044025;28;19920;-87
2022/11/30 14:30:24;;;;;;;;;;;;;;;;;;5046507;28;19920;-86
2022/11/30 14:33:02;;;;;;;;;;;;;;;;;;5046624;28;20768;-89
2022/11/30 14:35:29;;;;;;;;;;;;;;;;;;5046058;28;19940;-87
2022/11/30 14:37:55;;;;;;;;;;;;;;;;;;5046295;28;19952;-88
2022/11/30 14:40:22;;;;;;;;;;;;;;;;;;5044146;28;20026;-89
2022/11/30 14:42:52;;;;;;;;;;;;;;;;;;5035005;28;19924;-89
2022/11/30 14:45:22;;;;;;;;;;;;;;;;;;5044053;28;19921;-86
2022/11/30 14:47:50;;;;;;;;;;;;;;;;;;5036558;28;19928;-88
2022/11/30 14:50:25;;;;;;;;;;;;;;;;;;5035315;28;19932;-89
2022/11/30 14:53:05;;;;;;;;;;;;;;;;;;5033083;28;19921;-87
2022/11/30 14:55:32;;;;;;;;;;;;;;;;;;5032220;28;20818;-87
2022/11/30 14:58:11;;;;;;;;;;;;;;;;;;5039402;28;19946;-85
2022/11/30 15:00:37;;;;;;;;;;;;;;;;;;5048668;28;19921;-87
2022/11/30 15:03:04;;;;;;;;;;;;;;;;;;5048454;28;19972;-86
2022/11/30 15:05:29;;;;;;;;;;;;;;;;;;5044473;28;20454;-88
2022/11/30 15:07:55;;;;;;;;;;;;;;;;;;5044063;28;20035;-89
2022/11/30 15:10:31;;;;;;;;;;;;;;;;;;5045303;28;19932;-85
2022/11/30 15:12:58;;;;;;;;;;;;;;;;;;5059778;28;19928;-85
2022/11/30 15:15:26;;;;;;;;;;;;;;;;;;5044388;28;19925;-86
2022/11/30 15:17:53;;;;;;;;;;;;;;;;;;5043148;28;19927;-87
2022/11/30 15:20:34;;;;;;;;;;;;;;;;;;5060057;28;19921;-86
2022/11/30 15:22:59;;;;;;;;;;;;;;;;;;5042285;28;20501;-86
2022/11/30 15:25:29;;;;;;;;;;;;;;;;;;5058915;28;19998;-87
2022/11/30 15:27:55;;;;;;;;;;;;;;;;;;5060941;28;20389;-88
2022/11/30 15:30:21;;;;;;;;;;;;;;;;;;5042336;28;19929;-88
2022/11/30 15:32:52;;;;;;;;;;;;;;;;;;5053940;22;20116;-85
2022/11/30 15:35:19;;;;;;;;;;;;;;;;;;5059058;28;20155;-88
2022/11/30 15:37:45;;;;;;;;;;;;;;;;;;5041056;28;19924;-85
2022/11/30 15:40:17;;;;;;;;;;;;;;;;;;5041817;28;19967;-88
2022/11/30 15:42:45;;;;;;;;;;;;;;;;;;5060290;28;20360;-87
2022/11/30 15:45:24;;;;;;;;;;;;;;;;;;5043720;28;20024;-87
2022/11/30 15:47:50;;;;;;;;;;;;;;;;;;5059329;28;19979;-87
2022/11/30 15:50:20;;;;;;;;;;;;;;;;;;5042831;28;19921;-85
2022/11/30 15:52:47;;;;;;;;;;;;;;;;;;5042400;28;19936;-87
2022/11/30 15:55:30;;;;;;;;;;;;;;;;;;5042421;28;19921;-86
2022/11/30 15:57:58;;;;;;;;;;;;;;;;;;5042549;28;19924;-85
2022/11/30 16:00:24;;;;;;;;;;;;;;;;;;5042948;28;19924;-85
2022/11/30 16:03:05;;;;;;;;;;;;;;;;;;5042130;28;19920;-86
2022/11/30 16:05:30;;;;;;;;;;;;;;;;;;5041444;28;19921;-85
2022/11/30 16:08:01;;;;;;;;;;;;;;;;;;5044034;28;19921;-86
2022/11/30 16:10:30;;;;;;;;;;;;;;;;;;5041588;28;19928;-88
2022/11/30 16:12:55;;;;;;;;;;;;;;;;;;5043137;28;20196;-86
2022/11/30 16:15:26;;;;;;;;;;;;;;;;;;5043881;28;20388;-86
2022/11/30 16:17:52;;;;;;;;;;;;;;;;;;5046864;28;20355;-87
2022/11/30 16:20:19;;;;;;;;;;;;;;;;;;5054084;28;20386;-86
2022/11/30 16:22:46;;;;;;;;;;;;;;;;;;5043537;28;19960;-87
2022/11/30 16:25:18;;;;;;;;;;;;;;;;;;5047375;28;20314;-86
2022/11/30 16:27:44;;;;;;;;;;;;;;;;;;5046585;28;20348;-85
2022/11/30 16:30:13;;;;;;;;;;;;;;;;;;5047064;28;20007;-87
2022/11/30 16:32:38;;;;;;;;;;;;;;;;;;5048597;28;19921;-86
2022/11/30 16:35:10;;;;;;;;;;;;;;;;;;5052461;28;19920;-86
2022/11/30 16:37:36;;;;;;;;;;;;;;;;;;5044813;28;20299;-86
2022/11/30 16:40:01;;;;;;;;;;;;;;;;;;5035326;28;19928;-85
2022/11/30 16:42:26;;;;;;;;;;;;;;;;;;5045704;28;19925;-86
2022/11/30 16:44:52;;;;;;;;;;;;;;;;;;5055524;28;20039;-86
2022/11/30 16:47:17;;;;;;;;;;;;;;;;;;5072684;28;19925;-86
2022/11/30 16:49:43;;;;;;;;;;;;;;;;;;5057414;28;19928;-85
2022/11/30 16:52:13;;;;;;;;;;;;;;;;;;5040384;28;19924;-85
2022/11/30 16:54:39;;;;;;;;;;;;;;;;;;5048599;28;20352;-84
2022/11/30 16:57:04;;;;;;;;;;;;;;;;;;5050186;28;19928;-85